sensor_id;sensor_type;location;lat;lon;timestamp;pressure;altitude;pressure_sealevel;temperature;humidity
32791;BME280;19143;59.322;14.502;2024-01-15T00:01:07;97079.66;;;-5.69;100.00
32791;BME280;19143;59.322;14.502;2024-01-15T00:03:33;97105.34;;;-5.61;100.00
32791;BME280;19143;59.322;14.502;2024-01-15T00:06:02;97076.25;;;-5.89;100.00
32791;BME280;19143;59.322;14.502;2024-01-15T00:08:29;97110.66;;;-5.66;100.00
32791;BME280;19143;59.322;14.502;2024-01-15T00:10:56;97111.19;;;-5.69;100.00
32791;BME280;19143;59.322;14.502;2024-01-15T00:13:22;97112.84;;;-5.74;100.00
32791;BME280;19143;59.322;14.502;2024-01-15T00:15:49;97124.66;;;-5.71;100.00
32791;BME280;19143;59.322;14.502;2024-01-15T00:18:16;97106.00;;;-5.75;100.00
32791;BME280;19143;59.322;14.502;2024-01-15T00:20:42;97134.91;;;-5.75;100.00
32791;BME280;19143;59.322;14.502;2024-01-15T00:23:10;97112.81;;;-5.92;100.00
32791;BME280;19143;59.322;14.502;2024-01-15T00:25:37;97115.47;;;-5.74;100.00
32791;BME280;19143;59.322;14.502;2024-01-15T00:28:04;97122.94;;;-5.86;100.00
32791;BME280;19143;59.322;14.502;2024-01-15T00:30:34;97126.53;;;-5.77;100.00
32791;BME280;19143;59.322;14.502;2024-01-15T00:33:01;97126.72;;;-5.92;100.00
32791;BME280;19143;59.322;14.502;2024-01-15T00:35:28;97133.00;;;-5.88;100.00
32791;BME280;19143;59.322;14.502;2024-01-15T00:37:57;97125.03;;;-5.83;100.00
32791;BME280;19143;59.322;14.502;2024-01-15T00:40:25;97130.38;;;-5.88;100.00
32791;BME280;19143;59.322;14.502;2024-01-15T00:42:52;97145.53;;;-5.85;100.00
32791;BME280;19143;59.322;14.502;2024-01-15T00:45:19;97139.63;;;-5.95;100.00
32791;BME280;19143;59.322;14.502;2024-01-15T00:47:45;97133.63;;;-5.96;100.00
32791;BME280;19143;59.322;14.502;2024-01-15T00:50:12;97138.03;;;-5.91;100.00
32791;BME280;19143;59.322;14.502;2024-01-15T00:52:40;97139.88;;;-5.92;100.00
32791;BME280;19143;59.322;14.502;2024-01-15T00:55:07;97138.53;;;-5.89;100.00
32791;BME280;19143;59.322;14.502;2024-01-15T00:57:38;97151.44;;;-5.93;100.00
32791;BME280;19143;59.322;14.502;2024-01-15T01:00:06;97125.84;;;-6.11;100.00
32791;BME280;19143;59.322;14.502;2024-01-15T01:02:34;97153.66;;;-6.05;100.00
32791;BME280;19143;59.322;14.502;2024-01-15T01:05:00;97151.34;;;-6.12;100.00
32791;BME280;19143;59.322;14.502;2024-01-15T01:07:27;97145.88;;;-6.15;100.00
32791;BME280;19143;59.322;14.502;2024-01-15T01:09:54;97141.06;;;-6.08;100.00
32791;BME280;19143;59.322;14.502;2024-01-15T01:12:21;97133.81;;;-6.16;100.00
32791;BME280;19143;59.322;14.502;2024-01-15T01:14:49;97150.81;;;-6.08;100.00
32791;BME280;19143;59.322;14.502;2024-01-15T01:17:16;97142.09;;;-6.04;100.00
32791;BME280;19143;59.322;14.502;2024-01-15T01:19:43;97139.84;;;-6.16;100.00
32791;BME280;19143;59.322;14.502;2024-01-15T01:22:09;97148.44;;;-6.10;100.00
32791;BME280;19143;59.322;14.502;2024-01-15T01:24:36;97143.97;;;-6.09;100.00
32791;BME280;19143;59.322;14.502;2024-01-15T01:27:03;97152.13;;;-6.11;100.00
32791;BME280;19143;59.322;14.502;2024-01-15T01:29:29;97149.31;;;-6.20;100.00
32791;BME280;19143;59.322;14.502;2024-01-15T01:31:58;97154.28;;;-6.13;100.00
32791;BME280;19143;59.322;14.502;2024-01-15T01:34:24;97157.38;;;-6.11;100.00
32791;BME280;19143;59.322;14.502;2024-01-15T01:36:51;97148.00;;;-6.17;100.00
32791;BME280;19143;59.322;14.502;2024-01-15T01:39:18;97153.69;;;-6.10;100.00
32791;BME280;19143;59.322;14.502;2024-01-15T01:41:45;97152.69;;;-6.14;100.00
32791;BME280;19143;59.322;14.502;2024-01-15T01:44:11;97162.88;;;-6.07;100.00
32791;BME280;19143;59.322;14.502;2024-01-15T01:46:38;97158.03;;;-6.24;100.00
32791;BME280;19143;59.322;14.502;2024-01-15T01:49:07;97166.31;;;-6.12;100.00
32791;BME280;19143;59.322;14.502;2024-01-15T01:51:35;97169.59;;;-6.25;100.00
32791;BME280;19143;59.322;14.502;2024-01-15T01:54:03;97166.97;;;-6.25;100.00
32791;BME280;19143;59.322;14.502;2024-01-15T01:56:30;97170.66;;;-6.26;100.00
32791;BME280;19143;59.322;14.502;2024-01-15T01:58:57;97175.13;;;-6.27;100.00
32791;BME280;19143;59.322;14.502;2024-01-15T02:01:24;97179.31;;;-6.26;100.00
32791;BME280;19143;59.322;14.502;2024-01-15T02:03:51;97174.41;;;-6.37;100.00
32791;BME280;19143;59.322;14.502;2024-01-15T02:06:20;97175.44;;;-6.33;100.00
32791;BME280;19143;59.322;14.502;2024-01-15T02:08:46;97174.75;;;-6.44;100.00
32791;BME280;19143;59.322;14.502;2024-01-15T02:11:13;97169.16;;;-6.37;100.00
32791;BME280;19143;59.322;14.502;2024-01-15T02:13:40;97182.41;;;-6.47;100.00
32791;BME280;19143;59.322;14.502;2024-01-15T02:16:06;97165.84;;;-6.48;100.00
32791;BME280;19143;59.322;14.502;2024-01-15T02:18:40;97182.88;;;-6.40;100.00
32791;BME280;19143;59.322;14.502;2024-01-15T02:21:07;97176.91;;;-6.51;100.00
32791;BME280;19143;59.322;14.502;2024-01-15T02:23:35;97176.56;;;-6.39;100.00
32791;BME280;19143;59.322;14.502;2024-01-15T02:26:02;97178.72;;;-6.52;100.00
32791;BME280;19143;59.322;14.502;2024-01-15T02:28:29;97182.34;;;-6.42;100.00
32791;BME280;19143;59.322;14.502;2024-01-15T02:30:55;97183.91;;;-6.41;100.00
32791;BME280;19143;59.322;14.502;2024-01-15T02:33:22;97187.66;;;-6.53;100.00
32791;BME280;19143;59.322;14.502;2024-01-15T02:35:49;97186.66;;;-6.57;100.00
32791;BME280;19143;59.322;14.502;2024-01-15T02:38:16;97189.25;;;-6.52;100.00
32791;BME280;19143;59.322;14.502;2024-01-15T02:40:44;97185.88;;;-6.57;100.00
32791;BME280;19143;59.322;14.502;2024-01-15T02:43:11;97194.53;;;-6.57;100.00
32791;BME280;19143;59.322;14.502;2024-01-15T02:45:39;97203.94;;;-6.51;100.00
32791;BME280;19143;59.322;14.502;2024-01-15T02:48:06;97188.91;;;-6.45;100.00
32791;BME280;19143;59.322;14.502;2024-01-15T02:50:32;97194.06;;;-6.64;100.00
32791;BME280;19143;59.322;14.502;2024-01-15T02:52:59;97202.63;;;-6.53;100.00
32791;BME280;19143;59.322;14.502;2024-01-15T02:55:26;97203.41;;;-6.53;100.00
32791;BME280;19143;59.322;14.502;2024-01-15T02:57:56;97208.66;;;-6.53;100.00
32791;BME280;19143;59.322;14.502;2024-01-15T03:00:22;97212.06;;;-6.52;100.00
32791;BME280;19143;59.322;14.502;2024-01-15T03:02:50;97209.75;;;-6.59;100.00
32791;BME280;19143;59.322;14.502;2024-01-15T03:05:16;97221.31;;;-6.60;100.00
32791;BME280;19143;59.322;14.502;2024-01-15T03:07:43;97221.28;;;-6.55;100.00
32791;BME280;19143;59.322;14.502;2024-01-15T03:10:10;97226.53;;;-6.55;100.00
32791;BME280;19143;59.322;14.502;2024-01-15T03:12:37;97246.78;;;-6.55;100.00
32791;BME280;19143;59.322;14.502;2024-01-15T03:15:05;97228.19;;;-6.64;100.00
32791;BME280;19143;59.322;14.502;2024-01-15T03:17:32;97230.50;;;-6.62;100.00
32791;BME280;19143;59.322;14.502;2024-01-15T03:19:59;97230.28;;;-6.66;100.00
32791;BME280;19143;59.322;14.502;2024-01-15T03:22:25;97237.34;;;-6.61;100.00
32791;BME280;19143;59.322;14.502;2024-01-15T03:24:52;97237.13;;;-6.65;100.00
32791;BME280;19143;59.322;14.502;2024-01-15T03:27:19;97250.19;;;-6.60;100.00
32791;BME280;19143;59.322;14.502;2024-01-15T03:29:45;97247.09;;;-6.67;100.00
32791;BME280;19143;59.322;14.502;2024-01-15T03:32:13;97227.19;;;-6.78;100.00
32791;BME280;19143;59.322;14.502;2024-01-15T03:34:41;97254.97;;;-6.67;100.00
32791;BME280;19143;59.322;14.502;2024-01-15T03:37:08;97258.69;;;-6.78;100.00
32791;BME280;19143;59.322;14.502;2024-01-15T03:39:34;97249.94;;;-6.63;100.00
32791;BME280;19143;59.322;14.502;2024-01-15T03:42:01;97264.97;;;-6.74;100.00
32791;BME280;19143;59.322;14.502;2024-01-15T03:44:28;97260.22;;;-6.72;100.00
32791;BME280;19143;59.322;14.502;2024-01-15T03:46:55;97262.34;;;-6.74;100.00
32791;BME280;19143;59.322;14.502;2024-01-15T03:49:24;97267.56;;;-6.69;100.00
32791;BME280;19143;59.322;14.502;2024-01-15T03:51:51;97278.59;;;-6.67;100.00
32791;BME280;19143;59.322;14.502;2024-01-15T03:54:18;97266.56;;;-6.73;100.00
32791;BME280;19143;59.322;14.502;2024-01-15T03:56:44;97273.66;;;-6.78;100.00
32791;BME280;19143;59.322;14.502;2024-01-15T03:59:11;97276.53;;;-6.80;100.00
32791;BME280;19143;59.322;14.502;2024-01-15T04:01:38;97275.81;;;-6.91;100.00
32791;BME280;19143;59.322;14.502;2024-01-15T04:04:04;97288.69;;;-6.99;100.00
32791;BME280;19143;59.322;14.502;2024-01-15T04:06:32;97284.81;;;-7.12;100.00
32791;BME280;19143;59.322;14.502;2024-01-15T04:08:59;97293.97;;;-7.09;100.00
32791;BME280;19143;59.322;14.502;2024-01-15T04:11:26;97285.34;;;-7.15;100.00
32791;BME280;19143;59.322;14.502;2024-01-15T04:13:52;97285.59;;;-7.11;100.00
32791;BME280;19143;59.322;14.502;2024-01-15T04:16:19;97295.28;;;-7.07;100.00
32791;BME280;19143;59.322;14.502;2024-01-15T04:18:45;97298.16;;;-7.03;100.00
32791;BME280;19143;59.322;14.502;2024-01-15T04:21:12;97296.03;;;-7.01;100.00
32791;BME280;19143;59.322;14.502;2024-01-15T04:23:40;97289.84;;;-7.26;100.00
32791;BME280;19143;59.322;14.502;2024-01-15T04:26:07;97316.03;;;-7.20;100.00
32791;BME280;19143;59.322;14.502;2024-01-15T04:28:33;97322.59;;;-7.18;100.00
32791;BME280;19143;59.322;14.502;2024-01-15T04:31:00;97318.66;;;-7.20;100.00
32791;BME280;19143;59.322;14.502;2024-01-15T04:33:27;97326.53;;;-7.26;100.00
32791;BME280;19143;59.322;14.502;2024-01-15T04:35:53;97323.41;;;-7.28;100.00
32791;BME280;19143;59.322;14.502;2024-01-15T04:38:20;97309.25;;;-7.47;100.00
32791;BME280;19143;59.322;14.502;2024-01-15T04:40:48;97329.44;;;-7.32;100.00
32791;BME280;19143;59.322;14.502;2024-01-15T04:43:15;97306.66;;;-7.42;100.00
32791;BME280;19143;59.322;14.502;2024-01-15T04:45:41;97339.13;;;-7.28;100.00
32791;BME280;19143;59.322;14.502;2024-01-15T04:48:08;97333.38;;;-7.24;100.00
32791;BME280;19143;59.322;14.502;2024-01-15T04:50:35;97325.50;;;-7.30;100.00
32791;BME280;19143;59.322;14.502;2024-01-15T04:53:01;97337.56;;;-7.23;100.00
32791;BME280;19143;59.322;14.502;2024-01-15T04:55:28;97330.69;;;-7.14;100.00
32791;BME280;19143;59.322;14.502;2024-01-15T04:57:57;97330.25;;;-7.32;100.00
32791;BME280;19143;59.322;14.502;2024-01-15T05:00:23;97328.63;;;-7.28;100.00
32791;BME280;19143;59.322;14.502;2024-01-15T05:02:50;97315.56;;;-7.33;100.00
32791;BME280;19143;59.322;14.502;2024-01-15T05:05:17;97338.84;;;-7.31;100.00
32791;BME280;19143;59.322;14.502;2024-01-15T05:07:43;97335.97;;;-7.24;100.00
32791;BME280;19143;59.322;14.502;2024-01-15T05:10:10;97352.78;;;-7.36;100.00
32791;BME280;19143;59.322;14.502;2024-01-15T05:12:37;97350.97;;;-7.40;100.00
32791;BME280;19143;59.322;14.502;2024-01-15T05:15:05;97354.09;;;-7.23;100.00
32791;BME280;19143;59.322;14.502;2024-01-15T05:17:32;97363.25;;;-7.20;100.00
32791;BME280;19143;59.322;14.502;2024-01-15T05:19:59;97363.50;;;-7.22;100.00
32791;BME280;19143;59.322;14.502;2024-01-15T05:22:25;97340.72;;;-7.47;100.00
32791;BME280;19143;59.322;14.502;2024-01-15T05:24:52;97371.66;;;-7.34;100.00
32791;BME280;19143;59.322;14.502;2024-01-15T05:27:19;97364.31;;;-7.32;100.00
32791;BME280;19143;59.322;14.502;2024-01-15T05:29:45;97378.22;;;-7.36;100.00
32791;BME280;19143;59.322;14.502;2024-01-15T05:32:13;97378.47;;;-7.43;100.00
32791;BME280;19143;59.322;14.502;2024-01-15T05:34:40;97370.09;;;-7.35;100.00
32791;BME280;19143;59.322;14.502;2024-01-15T05:37:06;97388.97;;;-7.33;100.00
32791;BME280;19143;59.322;14.502;2024-01-15T05:39:33;97361.19;;;-7.54;100.00
32791;BME280;19143;59.322;14.502;2024-01-15T05:42:00;97382.91;;;-7.38;100.00
32791;BME280;19143;59.322;14.502;2024-01-15T05:44:27;97377.69;;;-7.43;100.00
32791;BME280;19143;59.322;14.502;2024-01-15T05:46:53;97385.31;;;-7.42;100.00
32791;BME280;19143;59.322;14.502;2024-01-15T05:49:21;97392.38;;;-7.37;100.00
32791;BME280;19143;59.322;14.502;2024-01-15T05:51:48;97390.25;;;-7.55;100.00
32791;BME280;19143;59.322;14.502;2024-01-15T05:54:15;97384.78;;;-7.59;100.00
32791;BME280;19143;59.322;14.502;2024-01-15T05:56:45;97399.72;;;-7.49;100.00
32791;BME280;19143;59.322;14.502;2024-01-15T05:59:12;97418.34;;;-7.41;100.00
32791;BME280;19143;59.322;14.502;2024-01-15T06:01:38;97407.56;;;-7.54;100.00
32791;BME280;19143;59.322;14.502;2024-01-15T06:04:08;97396.03;;;-7.69;100.00
32791;BME280;19143;59.322;14.502;2024-01-15T06:06:36;97406.25;;;-7.52;100.00
32791;BME280;19143;59.322;14.502;2024-01-15T06:09:03;97407.03;;;-7.61;100.00
32791;BME280;19143;59.322;14.502;2024-01-15T06:11:33;97393.69;;;-7.60;100.00
32791;BME280;19143;59.322;14.502;2024-01-15T06:14:01;97423.84;;;-7.42;100.00
32791;BME280;19143;59.322;14.502;2024-01-15T06:16:28;97432.22;;;-7.50;100.00
32791;BME280;19143;59.322;14.502;2024-01-15T06:18:57;97432.47;;;-7.52;100.00
32791;BME280;19143;59.322;14.502;2024-01-15T06:21:24;97440.34;;;-7.52;100.00
32791;BME280;19143;59.322;14.502;2024-01-15T06:23:52;97440.59;;;-7.43;100.00
32791;BME280;19143;59.322;14.502;2024-01-15T06:26:20;97450.56;;;-7.45;100.00
32791;BME280;19143;59.322;14.502;2024-01-15T06:28:47;97449.78;;;-7.61;100.00
32791;BME280;19143;59.322;14.502;2024-01-15T06:31:14;97458.69;;;-7.52;100.00
32791;BME280;19143;59.322;14.502;2024-01-15T06:33:41;97457.66;;;-7.41;100.00
32791;BME280;19143;59.322;14.502;2024-01-15T06:36:11;97457.91;;;-7.47;100.00
32791;BME280;19143;59.322;14.502;2024-01-15T06:38:38;97459.75;;;-7.43;100.00
32791;BME280;19143;59.322;14.502;2024-01-15T06:41:06;97449.22;;;-7.73;100.00
32791;BME280;19143;59.322;14.502;2024-01-15T06:43:32;97462.84;;;-7.76;100.00
32791;BME280;19143;59.322;14.502;2024-01-15T06:45:59;97454.16;;;-7.82;100.00
32791;BME280;19143;59.322;14.502;2024-01-15T06:48:26;97468.06;;;-7.81;100.00
32791;BME280;19143;59.322;14.502;2024-01-15T06:50:52;97471.72;;;-7.92;100.00
32791;BME280;19143;59.322;14.502;2024-01-15T06:53:19;97466.41;;;-8.08;100.00
32791;BME280;19143;59.322;14.502;2024-01-15T06:55:46;97456.44;;;-8.21;100.00
32791;BME280;19143;59.322;14.502;2024-01-15T06:58:15;97485.78;;;-8.19;100.00
32791;BME280;19143;59.322;14.502;2024-01-15T07:00:42;97485.78;;;-8.19;100.00
32791;BME280;19143;59.322;14.502;2024-01-15T07:03:09;97492.06;;;-8.15;100.00
32791;BME280;19143;59.322;14.502;2024-01-15T07:05:36;97494.16;;;-8.12;100.00
32791;BME280;19143;59.322;14.502;2024-01-15T07:08:03;97496.78;;;-8.12;100.00
32791;BME280;19143;59.322;14.502;2024-01-15T07:10:30;97493.59;;;-8.24;100.00
32791;BME280;19143;59.322;14.502;2024-01-15T07:12:57;97497.25;;;-8.25;100.00
32791;BME280;19143;59.322;14.502;2024-01-15T07:15:25;97510.88;;;-8.23;100.00
32791;BME280;19143;59.322;14.502;2024-01-15T07:17:51;97511.66;;;-8.27;100.00
32791;BME280;19143;59.322;14.502;2024-01-15T07:20:18;97514.53;;;-8.34;100.00
32791;BME280;19143;59.322;14.502;2024-01-15T07:22:46;97498.72;;;-8.54;100.00
32791;BME280;19143;59.322;14.502;2024-01-15T07:25:12;97505.06;;;-8.40;100.00
32791;BME280;19143;59.322;14.502;2024-01-15T07:27:39;97515.56;;;-8.35;100.00
32791;BME280;19143;59.322;14.502;2024-01-15T07:30:10;97525.91;;;-8.60;100.00
32791;BME280;19143;59.322;14.502;2024-01-15T07:32:38;97520.22;;;-8.47;100.00
32791;BME280;19143;59.322;14.502;2024-01-15T07:35:06;97521.22;;;-8.53;100.00
32791;BME280;19143;59.322;14.502;2024-01-15T07:37:33;97528.53;;;-8.55;100.00
32791;BME280;19143;59.322;14.502;2024-01-15T07:39:59;97537.97;;;-8.54;100.00
32791;BME280;19143;59.322;14.502;2024-01-15T07:42:26;97539.56;;;-8.48;100.00
32791;BME280;19143;59.322;14.502;2024-01-15T07:44:53;97532.50;;;-8.48;100.00
32791;BME280;19143;59.322;14.502;2024-01-15T07:47:20;97536.84;;;-8.63;100.00
32791;BME280;19143;59.322;14.502;2024-01-15T07:49:48;97549.25;;;-8.49;100.00
32791;BME280;19143;59.322;14.502;2024-01-15T07:52:14;97538.94;;;-8.65;100.00
32791;BME280;19143;59.322;14.502;2024-01-15T07:54:41;97556.50;;;-8.61;100.00
32791;BME280;19143;59.322;14.502;2024-01-15T07:57:08;97557.78;;;-8.63;100.00
32791;BME280;19143;59.322;14.502;2024-01-15T07:59:35;97563.03;;;-8.63;100.00
32791;BME280;19143;59.322;14.502;2024-01-15T08:02:02;97566.44;;;-8.58;100.00
32791;BME280;19143;59.322;14.502;2024-01-15T08:04:29;97555.00;;;-8.89;100.00
32791;BME280;19143;59.322;14.502;2024-01-15T08:06:57;97567.22;;;-8.62;100.00
32791;BME280;19143;59.322;14.502;2024-01-15T08:09:23;97562.69;;;-8.77;100.00
32791;BME280;19143;59.322;14.502;2024-01-15T08:11:50;97577.06;;;-8.74;100.00
32791;BME280;19143;59.322;14.502;2024-01-15T08:14:17;97595.88;;;-8.77;100.00
32791;BME280;19143;59.322;14.502;2024-01-15T08:16:44;97597.00;;;-8.68;100.00
32791;BME280;19143;59.322;14.502;2024-01-15T08:19:11;97603.31;;;-8.64;100.00
32791;BME280;19143;59.322;14.502;2024-01-15T08:21:38;97604.88;;;-8.63;100.00
32791;BME280;19143;59.322;14.502;2024-01-15T08:24:06;97592.84;;;-8.64;100.00
32791;BME280;19143;59.322;14.502;2024-01-15T08:26:33;97608.28;;;-8.63;100.00
32791;BME280;19143;59.322;14.502;2024-01-15T08:29:00;97611.13;;;-8.69;100.00
32791;BME280;19143;59.322;14.502;2024-01-15T08:31:26;97618.28;;;-8.60;100.00
32791;BME280;19143;59.322;14.502;2024-01-15T08:33:53;97611.03;;;-8.80;100.00
32791;BME280;19143;59.322;14.502;2024-01-15T08:36:21;97613.63;;;-8.85;100.00
32791;BME280;19143;59.322;14.502;2024-01-15T08:38:47;97619.72;;;-8.74;100.00
32791;BME280;19143;59.322;14.502;2024-01-15T08:41:15;97629.31;;;-8.85;100.00
32791;BME280;19143;59.322;14.502;2024-01-15T08:43:42;97639.25;;;-8.82;100.00
32791;BME280;19143;59.322;14.502;2024-01-15T08:46:09;97636.19;;;-8.73;100.00
32791;BME280;19143;59.322;14.502;2024-01-15T08:48:35;97638.31;;;-8.70;100.00
32791;BME280;19143;59.322;14.502;2024-01-15T08:51:02;97632.41;;;-8.88;100.00
32791;BME280;19143;59.322;14.502;2024-01-15T08:53:29;97646.88;;;-9.07;100.00
32791;BME280;19143;59.322;14.502;2024-01-15T08:55:56;97639.69;;;-8.95;100.00
32791;BME280;19143;59.322;14.502;2024-01-15T08:58:24;97651.75;;;-8.89;100.00
32791;BME280;19143;59.322;14.502;2024-01-15T09:00:51;97654.28;;;-8.99;100.00
32791;BME280;19143;59.322;14.502;2024-01-15T09:03:18;97662.44;;;-9.17;100.00
32791;BME280;19143;59.322;14.502;2024-01-15T09:05:44;97660.97;;;-9.08;100.00
32791;BME280;19143;59.322;14.502;2024-01-15T09:08:11;97663.84;;;-9.09;100.00
32791;BME280;19143;59.322;14.502;2024-01-15T09:10:38;97659.13;;;-9.12;100.00
32791;BME280;19143;59.322;14.502;2024-01-15T09:13:04;97678.72;;;-9.10;100.00
32791;BME280;19143;59.322;14.502;2024-01-15T09:15:32;97675.25;;;-9.21;100.00
32791;BME280;19143;59.322;14.502;2024-01-15T09:17:59;97682.06;;;-9.20;100.00
32791;BME280;19143;59.322;14.502;2024-01-15T09:20:27;97674.38;;;-9.26;100.00
32791;BME280;19143;59.322;14.502;2024-01-15T09:22:54;97675.16;;;-9.04;100.00
32791;BME280;19143;59.322;14.502;2024-01-15T09:25:21;97689.81;;;-9.25;100.00
32791;BME280;19143;59.322;14.502;2024-01-15T09:27:47;97679.59;;;-9.26;100.00
32791;BME280;19143;59.322;14.502;2024-01-15T09:30:14;97681.13;;;-9.30;100.00
32791;BME280;19143;59.322;14.502;2024-01-15T09:32:43;97686.50;;;-9.20;100.00
32791;BME280;19143;59.322;14.502;2024-01-15T09:35:09;97686.84;;;-9.33;100.00
32791;BME280;19143;59.322;14.502;2024-01-15T09:37:36;97686.28;;;-9.35;100.00
32791;BME280;19143;59.322;14.502;2024-01-15T09:40:05;97697.00;;;-9.37;100.00
32791;BME280;19143;59.322;14.502;2024-01-15T09:42:33;97702.72;;;-9.62;100.00
32791;BME280;19143;59.322;14.502;2024-01-15T09:45:01;97715.47;;;-9.43;100.00
32791;BME280;19143;59.322;14.502;2024-01-15T09:47:29;97717.59;;;-9.62;100.00
32791;BME280;19143;59.322;14.502;2024-01-15T09:49:58;97713.28;;;-9.51;100.00
32791;BME280;19143;59.322;14.502;2024-01-15T09:52:25;97725.31;;;-9.50;100.00
32791;BME280;19143;59.322;14.502;2024-01-15T09:54:52;97729.78;;;-9.68;100.00
32791;BME280;19143;59.322;14.502;2024-01-15T09:57:18;97725.97;;;-9.60;100.00
32791;BME280;19143;59.322;14.502;2024-01-15T09:59:47;97723.78;;;-9.85;100.00
32791;BME280;19143;59.322;14.502;2024-01-15T10:02:14;97734.06;;;-9.62;100.00
32791;BME280;19143;59.322;14.502;2024-01-15T10:04:44;97728.47;;;-9.48;100.00
32791;BME280;19143;59.322;14.502;2024-01-15T10:07:15;97707.81;;;-9.72;100.00
32791;BME280;19143;59.322;14.502;2024-01-15T10:09:42;97741.81;;;-9.67;100.00
32791;BME280;19143;59.322;14.502;2024-01-15T10:12:09;97728.00;;;-9.84;100.00
32791;BME280;19143;59.322;14.502;2024-01-15T10:14:36;97728.22;;;-9.85;100.00
32791;BME280;19143;59.322;14.502;2024-01-15T10:17:12;97752.63;;;-9.80;100.00
32791;BME280;19143;59.322;14.502;2024-01-15T10:19:39;97755.84;;;-9.73;100.00
32791;BME280;19143;59.322;14.502;2024-01-15T10:22:07;97765.72;;;-9.75;100.00
32791;BME280;19143;59.322;14.502;2024-01-15T10:24:36;97735.53;;;-9.87;100.00
32791;BME280;19143;59.322;14.502;2024-01-15T10:27:06;97762.09;;;-9.74;100.00
32791;BME280;19143;59.322;14.502;2024-01-15T10:29:34;97763.84;;;-9.63;100.00
32791;BME280;19143;59.322;14.502;2024-01-15T10:32:01;97763.22;;;-9.70;100.00
32791;BME280;19143;59.322;14.502;2024-01-15T10:34:30;97749.91;;;-9.85;100.00
32791;BME280;19143;59.322;14.502;2024-01-15T10:36:57;97753.56;;;-10.03;100.00
32791;BME280;19143;59.322;14.502;2024-01-15T10:39:24;97749.91;;;-10.02;100.00
32791;BME280;19143;59.322;14.502;2024-01-15T10:41:52;97761.72;;;-9.99;100.00
32791;BME280;19143;59.322;14.502;2024-01-15T10:44:19;97764.50;;;-9.89;100.00
32791;BME280;19143;59.322;14.502;2024-01-15T10:46:46;97755.16;;;-10.02;100.00
32791;BME280;19143;59.322;14.502;2024-01-15T10:49:13;97770.81;;;-10.02;100.00
32791;BME280;19143;59.322;14.502;2024-01-15T10:51:40;97770.50;;;-10.05;100.00
32791;BME280;19143;59.322;14.502;2024-01-15T10:54:09;97770.81;;;-10.02;100.00
32791;BME280;19143;59.322;14.502;2024-01-15T10:56:37;97765.06;;;-10.20;100.00
32791;BME280;19143;59.322;14.502;2024-01-15T10:59:06;97747.44;;;-10.30;100.00
32791;BME280;19143;59.322;14.502;2024-01-15T11:01:36;97764.16;;;-10.43;100.00
32791;BME280;19143;59.322;14.502;2024-01-15T11:04:03;97768.06;;;-10.28;100.00
32791;BME280;19143;59.322;14.502;2024-01-15T11:06:41;97768.28;;;-10.13;100.00
32791;BME280;19143;59.322;14.502;2024-01-15T11:09:08;97767.81;;;-10.10;100.00
32791;BME280;19143;59.322;14.502;2024-01-15T11:11:35;97767.34;;;-10.07;100.00
32791;BME280;19143;59.322;14.502;2024-01-15T11:14:02;97776.03;;;-9.85;100.00
32791;BME280;19143;59.322;14.502;2024-01-15T11:16:53;97773.81;;;-9.93;100.00
32791;BME280;19143;59.322;14.502;2024-01-15T11:19:20;97784.75;;;-9.79;100.00
32791;BME280;19143;59.322;14.502;2024-01-15T11:21:47;97785.16;;;-9.87;100.00
32791;BME280;19143;59.322;14.502;2024-01-15T11:24:34;97788.69;;;-9.94;100.00
32791;BME280;19143;59.322;14.502;2024-01-15T11:27:02;97785.22;;;-9.99;100.00
32791;BME280;19143;59.322;14.502;2024-01-15T11:29:29;97787.75;;;-9.87;100.00
32791;BME280;19143;59.322;14.502;2024-01-15T11:31:59;97793.84;;;-9.82;100.00
32791;BME280;19143;59.322;14.502;2024-01-15T11:34:55;97797.25;;;-9.81;100.00
32791;BME280;19143;59.322;14.502;2024-01-15T11:37:23;97797.72;;;-10.01;100.00
32791;BME280;19143;59.322;14.502;2024-01-15T11:39:52;97785.06;;;-10.09;100.00
32791;BME280;19143;59.322;14.502;2024-01-15T11:42:20;97802.00;;;-9.78;100.00
32791;BME280;19143;59.322;14.502;2024-01-15T11:44:47;97808.00;;;-9.78;100.00
32791;BME280;19143;59.322;14.502;2024-01-15T11:50:07;97806.56;;;-10.02;100.00
32791;BME280;19143;59.322;14.502;2024-01-15T11:52:34;97810.69;;;-9.73;100.00
32791;BME280;19143;59.322;14.502;2024-01-15T11:55:12;97808.00;;;-9.78;100.00
32791;BME280;19143;59.322;14.502;2024-01-15T11:57:42;97811.66;;;-9.79;100.00
32791;BME280;19143;59.322;14.502;2024-01-15T12:00:11;97827.47;;;-9.69;100.00
32791;BME280;19143;59.322;14.502;2024-01-15T12:02:41;97808.78;;;-9.94;100.00
32791;BME280;19143;59.322;14.502;2024-01-15T12:05:08;97801.50;;;-9.92;100.00
32791;BME280;19143;59.322;14.502;2024-01-15T12:07:37;97797.06;;;-9.75;100.00
32791;BME280;19143;59.322;14.502;2024-01-15T12:10:08;97810.22;;;-9.70;100.00
32791;BME280;19143;59.322;14.502;2024-01-15T12:12:43;97806.56;;;-9.69;100.00
32791;BME280;19143;59.322;14.502;2024-01-15T12:15:12;97802.94;;;-9.68;100.00
32791;BME280;19143;59.322;14.502;2024-01-15T12:17:40;97809.34;;;-9.59;100.00
32791;BME280;19143;59.322;14.502;2024-01-15T12:20:08;97816.38;;;-9.59;100.00
32791;BME280;19143;59.322;14.502;2024-01-15T12:22:35;97808.78;;;-9.61;100.00
32791;BME280;19143;59.322;14.502;2024-01-15T12:25:02;97802.06;;;-9.57;100.00
32791;BME280;19143;59.322;14.502;2024-01-15T12:27:29;97804.84;;;-9.63;100.00
32791;BME280;19143;59.322;14.502;2024-01-15T12:29:55;97816.78;;;-9.67;100.00
32791;BME280;19143;59.322;14.502;2024-01-15T12:32:23;97816.69;;;-9.56;100.00
32791;BME280;19143;59.322;14.502;2024-01-15T12:34:52;97814.16;;;-9.67;100.00
32791;BME280;19143;59.322;14.502;2024-01-15T12:37:18;97816.72;;;-9.72;100.00
32791;BME280;19143;59.322;14.502;2024-01-15T12:39:45;97815.91;;;-9.56;100.00
32791;BME280;19143;59.322;14.502;2024-01-15T12:42:14;97814.00;;;-9.61;100.00
32791;BME280;19143;59.322;14.502;2024-01-15T12:44:42;97824.63;;;-9.67;100.00